Data for 03/10/2005

Time Sea-Level Adjusted Pressure Absolute Pressure Temperature Relative Humidity Dew Point   
(mb) (inHg) (mb) (inHg) (C) (F) (%) (C) (F)
00:05 1024 30.24 853 25.19 5.8 42.4 80 2.6 36.7
00:10 1024 30.24 853 25.19 5.7 42.2 81 2.7 36.8
00:15 1024 30.24 853 25.19 5.6 42 82 2.7 36.8
00:20 1024 30.24 853 25.19 5.4 41.8 81 2.5 36.5
00:25 1024 30.24 853 25.19 5.5 41.9 81 2.5 36.5
00:30 1024 30.24 853 25.19 5.5 41.9 82 2.6 36.8
00:35 1024 30.24 853 25.19 5.4 41.8 82 2.5 36.6
00:40 1024 30.24 853 25.19 5.3 41.5 82 2.5 36.5
00:45 1024 30.24 853 25.19 5.3 41.5 82 2.4 36.4
00:50 1024 30.24 853 25.19 5.1 41.1 85 2.7 36.8
00:55 1024 30.24 853 25.19 4.9 40.8 85 2.6 36.6
01:00 1024 30.24 853 25.19 5 41 85 2.8 37
01:05 1024 30.24 853 25.19 5 41 84 2.5 36.5
01:10 1024 30.24 853 25.19 5.2 41.4 82 2.4 36.4
01:15 1024 30.24 853 25.19 5.4 41.8 80 2.3 36.1
01:20 1024 30.24 853 25.19 5.5 41.9 80 2.3 36.1
01:25 1024 30.24 853 25.19 5.6 42.1 79 2.2 36
01:30 1024 30.24 853 25.19 5.6 42 80 2.4 36.3
01:35 1024 30.24 853 25.19 5.5 41.9 80 2.3 36.1
01:40 1024 30.24 853 25.19 5.6 42 79 2.2 36
01:45 1024 30.24 853 25.19 5.7 42.3 78 2.1 35.8
01:50 1024 30.24 853 25.19 5.9 42.6 77 2.2 36
01:55 1024 30.24 853 25.19 5.9 42.6 77 2.2 36
02:00 1024 30.24 853 25.19 5.9 42.7 77 2.2 35.9
02:05 1024 30.24 853 25.19 6 42.8 76 2.2 35.9
02:10 1024 30.24 853 25.19 6 42.8 76 2.2 35.9
02:15 1024 30.24 853 25.19 6 42.8 76 2.1 35.8
02:20 1024 30.24 853 25.19 6.1 43 76 2.2 36
02:25 1024 30.24 853 25.19 6 42.9 76 2.2 35.9
02:30 1024 30.24 853 25.19 6 42.7 76 2.1 35.8
02:35 1024 30.24 853 25.19 6 42.7 76 2.1 35.8
02:40 1024 30.24 853 25.19 5.9 42.7 77 2.1 35.9
02:45 1024 30.24 853 25.19 5.9 42.6 77 2.2 36
02:50 1024 30.24 853 25.19 5.5 42 79 2.2 35.9
02:55 1024 30.24 854 25.22 5.4 41.7 79 2.1 35.7
03:00 1024 30.24 853 25.19 5.3 41.5 80 2.1 35.8
03:05 1024 30.24 853 25.19 5.2 41.4 80 2.1 35.8
03:10 1024 30.24 853 25.19 5.2 41.3 80 2 35.6
03:15 1024 30.24 853 25.19 5.1 41.2 80 2 35.5
03:20 1024 30.24 853 25.19 4.9 40.9 82 2.1 35.8
03:25 1024 30.24 854 25.22 4.7 40.5 82 1.9 35.3
03:30 1024 30.24 854 25.22 4.9 40.9 81 2 35.5
03:35 1024 30.24 854 25.22 4.8 40.6 82 2 35.5
03:40 1024 30.24 854 25.22 4.8 40.6 81 1.9 35.4
03:45 1025 30.27 854 25.22 4.9 40.8 81 1.9 35.4
03:50 1025 30.27 854 25.22 5 41 80 1.9 35.4
03:55 1025 30.27 854 25.22 5 41 80 1.9 35.4
04:00 1025 30.27 854 25.22 5.1 41.2 80 2 35.5
04:05 1025 30.27 854 25.22 5 41 81 1.9 35.5
04:10 1025 30.27 854 25.22 5 40.9 81 2 35.5
04:15 1025 30.27 854 25.22 4.8 40.7 81 1.9 35.4
04:20 1025 30.27 854 25.22 4.4 39.9 83 1.8 35.2
04:25 1025 30.27 854 25.22 4.3 39.7 83 1.7 35
04:30 1025 30.27 854 25.22 3.9 39.1 84 1.5 34.7
04:35 1025 30.27 854 25.22 4 39.1 84 1.4 34.6
04:40 1025 30.27 854 25.22 4.1 39.4 83 1.5 34.8
04:45 1025 30.27 854 25.22 4.1 39.4 83 1.4 34.6
04:50 1025 30.27 854 25.22 4.1 39.4 83 1.4 34.6
04:55 1025 30.27 854 25.22 4.2 39.6 81 1.3 34.3
05:00 1025 30.27 855 25.25 4.2 39.6 81 1.2 34.2
05:05 1026 30.3 855 25.25 4.3 39.8 80 1.2 34.2
05:10 1026 30.3 855 25.25 4.3 39.8 80 1.2 34.2
05:15 1026 30.3 855 25.25 4.3 39.7 80 1.2 34.1
05:20 1026 30.3 855 25.25 4.1 39.5 81 1.1 34
05:25 1026 30.3 855 25.25 4.2 39.5 80 1.1 33.9
05:30 1026 30.3 855 25.25 4 39.2 81 1 33.8
05:35 1026 30.3 855 25.25 3.7 38.7 81 0.8 33.4
05:40 1026 30.3 855 25.25 3.6 38.6 81 0.7 33.2
05:45 1026 30.3 855 25.25 3.6 38.4 81 0.6 33.1
05:50 1025 30.27 855 25.25 3.6 38.5 81 0.6 33
05:55 1025 30.27 855 25.25 3.5 38.3 81 0.5 32.9
06:00 1025 30.27 855 25.25 3.3 37.9 82 0.5 32.9
06:05 1025 30.27 855 25.25 3.1 37.5 83 0.5 32.8
06:10 1025 30.27 855 25.25 2.8 37.1 83 0.3 32.5
06:15 1025 30.27 855 25.25 2.6 36.7 84 0.2 32.4
06:20 1025 30.27 855 25.25 2.5 36.5 85 0.2 32.4
06:25 1025 30.27 855 25.25 2.3 36.1 86 0.1 32.3
06:30 1026 30.3 855 25.25 2.4 36.2 86 0.3 32.5
06:35 1026 30.3 855 25.25 2.7 36.8 84 0.2 32.4
06:40 1026 30.3 855 25.25 3 37.4 83 0.3 32.6
06:45 1026 30.3 855 25.25 3.2 37.8 81 0.3 32.6
06:50 1026 30.3 855 25.25 3.5 38.2 80 0.4 32.7
06:55 1026 30.3 855 25.25 3.6 38.5 80 0.5 32.9
07:00 1026 30.3 855 25.25 3.7 38.6 80 0.5 33
07:05 1026 30.3 855 25.25 3.6 38.5 81 0.7 33.2
07:10 1026 30.3 855 25.25 3.7 38.7 80 0.6 33
07:15 1026 30.3 855 25.25 3.8 38.8 79 0.6 33
07:20 1026 30.3 855 25.25 3.8 38.8 79 0.4 32.8
07:25 1026 30.3 855 25.25 3.8 38.8 78 0.3 32.5
07:30 1026 30.3 855 25.25 3.8 38.8 77 0.2 32.3
07:35 1026 30.3 855 25.25 3.9 39 76 0.1 32.1
07:40 1026 30.3 855 25.25 4 39.2 75 -0 31.9
07:45 1026 30.3 855 25.25 4.1 39.3 75 0.1 32.1
07:50 1026 30.3 855 25.25 4.2 39.5 76 0.2 32.4
07:55 1026 30.3 855 25.25 4.2 39.6 75 0.2 32.4
08:00 1026 30.3 856 25.28 4.4 39.8 73 0 32
08:05 1026 30.3 856 25.28 4.6 40.3 72 -0.1 31.9
08:10 1026 30.3 856 25.28 4.8 40.7 70 -0.2 31.7
08:15 1027 30.33 856 25.28 5 41 68 -0.4 31.3
08:20 1027 30.33 856 25.28 5 41.1 69 -0.3 31.5
08:25 1027 30.33 856 25.28 5 41 68 -0.4 31.3
08:30 1027 30.33 856 25.28 5.2 41.4 66 -0.6 30.9
08:35 1027 30.33 856 25.28 5.3 41.6 66 -0.4 31.2
08:40 1027 30.33 856 25.28 5.7 42.3 64 -0.5 31.2
08:45 1027 30.33 856 25.28 6.1 43 63 -0.4 31.3
08:50 1027 30.33 856 25.28 6.3 43.4 62 -0.3 31.4
08:55 1027 30.33 856 25.28 6.5 43.8 63 -0 31.9
09:00 1027 30.33 856 25.28 6.8 44.3 60 -0.3 31.4
09:05 1027 30.33 856 25.28 6.5 43.7 63 -0.1 31.9
09:10 1027 30.33 856 25.28 6.6 43.8 62 -0.2 31.6
09:15 1027 30.33 856 25.28 6.3 43.3 65 0.1 32.3
09:20 1027 30.33 856 25.28 5.7 42.3 66 -0 31.9
09:25 1027 30.33 856 25.28 5.5 41.8 68 0.1 32.1
09:30 1027 30.33 856 25.28 5.1 41.1 70 -0 31.9
09:35 1027 30.33 856 25.28 4.9 40.8 72 0.2 32.4
09:40 1027 30.33 856 25.28 5 41 72 0.5 32.8
09:45 1027 30.33 856 25.28 5.7 42.2 70 0.6 33.1
09:50 1027 30.33 856 25.28 6.4 43.5 69 1.2 34.2
09:55 1027 30.33 856 25.28 6.6 43.9 67 0.9 33.6
10:00 1027 30.33 856 25.28 7 44.6 65 1 33.7
10:05 1027 30.33 856 25.28 7 44.6 66 1.1 33.9
10:10 1027 30.33 857 25.31 7.2 44.9 65 1.1 34
10:15 1027 30.33 856 25.28 7.4 45.2 65 1.2 34.1
10:20 1027 30.33 856 25.28 7.1 44.7 63 0.5 33
10:25 1027 30.33 857 25.31 7.7 45.8 62 0.9 33.6
10:30 1027 30.33 857 25.31 7.7 45.8 62 0.8 33.4
10:35 1027 30.33 857 25.31 8.2 46.7 57 0.3 32.5
10:40 1027 30.33 857 25.31 8.5 47.2 55 -0.1 31.8
10:45 1027 30.33 857 25.31 8.3 47 54 -0.5 31
10:50 1027 30.33 857 25.31 8.7 47.6 52 -0.7 30.8
10:55 1027 30.33 856 25.28 9 48.1 51 -0.7 30.8
11:00 1027 30.33 856 25.28 8.4 47.1 53 -0.6 30.9
11:05 1027 30.33 856 25.28 8.6 47.5 51 -1 30.1
11:10 1027 30.33 856 25.28 9.5 49.1 48 -1 30.2
11:15 1027 30.33 856 25.28 9.7 49.4 48 -0.9 30.4
11:20 1027 30.33 856 25.28 9.7 49.4 47 -1.1 30
11:25 1027 30.33 857 25.31 9.8 49.7 44 -1.7 28.9
11:30 1027 30.33 857 25.31 9.6 49.3 48 -0.8 30.6
11:35 1027 30.33 856 25.28 9.7 49.4 42 -2.4 27.6
11:40 1027 30.33 856 25.28 10.2 50.3 42 -2.2 28
11:45 1027 30.33 856 25.28 9.2 48.5 47 -1.5 29.3
11:50 1027 30.33 856 25.28 8.8 47.9 48 -1.6 29.1
11:55 1027 30.33 856 25.28 8.7 47.7 46 -2.3 27.9
12:00 1027 30.33 856 25.28 9.3 48.7 43 -2.6 27.4
12:05 1027 30.33 856 25.28 9.7 49.5 40 -3.1 26.4
12:10 1027 30.33 856 25.28 9.9 49.8 40 -2.9 26.8
12:15 1027 30.33 856 25.28 9.9 49.9 39 -3.3 26.1
12:20 1027 30.33 856 25.28 9.5 49.1 41 -2.9 26.7
12:25 1027 30.33 856 25.28 10.1 50.1 34 -5.2 22.7
12:30 1027 30.33 856 25.28 9.7 49.5 36 -4.6 23.6
12:35 1027 30.33 856 25.28 10.1 50.2 34 -4.9 23.1
12:40 1027 30.33 856 25.28 10.5 51 34 -4.6 23.8
12:45 1027 30.33 856 25.28 10.8 51.4 35 -4.1 24.6
12:50 1027 30.33 856 25.28 10.3 50.5 34 -4.8 23.4
12:55 1027 30.33 856 25.28 11.1 51.9 32 -4.8 23.4
13:00 1027 30.33 856 25.28 11 51.8 33 -4.5 23.9
13:05 1027 30.33 856 25.28 11 51.7 33 -4.5 23.9
13:10 1027 30.33 856 25.28 11.1 52.1 31 -5.4 22.2
13:15 1027 30.33 856 25.28 11.6 53 31 -5 23.1
13:20 1027 30.33 856 25.28 11.7 53.1 30 -5.1 22.8
13:25 1026 30.3 856 25.28 11.8 53.2 30 -5 22.9
13:30 1026 30.3 856 25.28 12 53.5 30 -5 23.1
13:35 1026 30.3 855 25.25 11.5 52.7 32 -4.5 23.8
13:40 1026 30.3 855 25.25 10.8 51.5 33 -4.7 23.5
13:45 1026 30.3 855 25.25 11.4 52.5 33 -4.5 24
13:50 1026 30.3 855 25.25 11.3 52.3 34 -4.1 24.6
13:55 1026 30.3 855 25.25 11.7 53 32 -4.6 23.8
14:00 1026 30.3 855 25.25 12.2 53.9 31 -4.5 24
14:05 1026 30.3 855 25.25 12.1 53.7 31 -4.7 23.6
14:10 1026 30.3 855 25.25 12.5 54.5 31 -4.3 24.3
14:15 1026 30.3 855 25.25 11.8 53.3 30 -5.2 22.7
14:20 1026 30.3 855 25.25 12.3 54.1 29 -5.1 22.9
14:25 1025 30.27 855 25.25 12.3 54.2 30 -4.9 23.2
14:30 1025 30.27 855 25.25 12.7 54.8 28 -5.1 22.8
14:35 1025 30.27 855 25.25 12.1 53.9 30 -5 23
14:40 1025 30.27 855 25.25 12.3 54.1 28 -5.5 22
14:45 1025 30.27 855 25.25 11.6 53 31 -5 23
14:50 1025 30.27 855 25.25 11.6 53 29 -5.7 21.8
14:55 1025 30.27 855 25.25 11.8 53.2 29 -5.4 22.2
15:00 1025 30.27 855 25.25 11.9 53.4 29 -5.5 22.1
15:05 1025 30.27 855 25.25 12.6 54.6 27 -6.1 21.1
15:10 1025 30.27 855 25.25 12.5 54.4 26 -6.2 20.8
15:15 1025 30.27 855 25.25 12.5 54.4 27 -5.8 21.6
15:20 1025 30.27 854 25.22 12.5 54.6 27 -6.1 21.1
15:25 1025 30.27 854 25.22 12.5 54.6 27 -6 21.2
15:30 1025 30.27 854 25.22 12.6 54.6 27 -5.9 21.3
15:35 1025 30.27 854 25.22 12.5 54.5 26 -6.3 20.7
15:40 1025 30.27 854 25.22 12.2 53.9 27 -6.2 20.8
15:45 1025 30.27 854 25.22 12.4 54.2 27 -6 21.2
15:50 1025 30.27 854 25.22 12.6 54.7 26 -6.1 21
15:55 1025 30.27 854 25.22 12.7 54.9 27 -6 21.2
16:00 1025 30.27 854 25.22 12.7 54.9 26 -6.4 20.6
16:05 1025 30.27 854 25.22 12.8 55 26 -6.4 20.5
16:10 1025 30.27 854 25.22 13 55.5 25 -6.3 20.7
16:15 1025 30.27 854 25.22 13.3 56 25 -6.2 20.8
16:20 1025 30.27 854 25.22 13.2 55.8 25 -6.2 20.9
16:25 1025 30.27 854 25.22 13.2 55.8 25 -6.6 20.2
16:30 1025 30.27 854 25.22 12.9 55.2 26 -6.2 20.9
16:35 1025 30.27 854 25.22 12.5 54.5 27 -6.1 21
16:40 1025 30.27 854 25.22 12.6 54.6 26 -6.3 20.7
16:45 1025 30.27 854 25.22 12.8 55 26 -6.2 20.9
16:50 1024 30.24 854 25.22 12.8 55.1 26 -6.3 20.6
16:55 1024 30.24 854 25.22 12.8 55.1 26 -6 21.2
17:00 1024 30.24 854 25.22 12.5 54.4 27 -5.8 21.5
17:05 1024 30.24 854 25.22 12.3 54.1 28 -5.9 21.4
17:10 1024 30.24 854 25.22 12.1 53.8 28 -5.8 21.5
17:15 1024 30.24 854 25.22 12.2 54 28 -5.7 21.7
17:20 1024 30.24 853 25.19 12 53.6 28 -5.8 21.6
17:25 1024 30.24 853 25.19 12.1 53.7 28 -5.9 21.4
17:30 1024 30.24 853 25.19 12.1 53.8 29 -5.4 22.2
17:35 1024 30.24 853 25.19 11.9 53.4 29 -5.6 22
17:40 1024 30.24 853 25.19 11.7 53.1 29 -5.5 22
17:45 1024 30.24 853 25.19 11.7 53 30 -5.5 22.1
17:50 1024 30.24 853 25.19 11.4 52.6 29 -5.8 21.6
17:55 1024 30.24 853 25.19 11.6 52.8 29 -5.7 21.8
18:00 1024 30.24 853 25.19 11.3 52.3 30 -5.5 22.1
18:05 1024 30.24 853 25.19 10.9 51.7 31 -5.5 22.2
18:10 1024 30.24 853 25.19 10.7 51.2 32 -5.4 22.3
18:15 1024 30.24 853 25.19 10.6 51 32 -5.4 22.2
18:20 1024 30.24 853 25.19 10.4 50.7 32 -5.4 22.3
18:25 1024 30.24 853 25.19 10.2 50.4 33 -5.4 22.3
18:30 1024 30.24 853 25.19 10 50.1 33 -5.3 22.4
18:35 1024 30.24 853 25.19 9.9 49.8 34 -5.3 22.4
18:40 1024 30.24 853 25.19 9.7 49.5 34 -5.3 22.5
18:45 1024 30.24 853 25.19 9.6 49.2 35 -5.2 22.6
18:50 1024 30.24 853 25.19 8.7 47.6 41 -4 24.8
18:55 1024 30.24 853 25.19 7.6 45.7 44 -3.9 24.9
19:00 1024 30.24 854 25.22 7.2 45 45 -3.9 25
19:05 1024 30.24 853 25.19 6.9 44.5 46 -3.9 25.1
19:10 1024 30.24 854 25.22 6.1 42.9 49 -3.8 25.2
19:15 1024 30.24 854 25.22 5.6 42 50 -3.9 24.9
19:20 1024 30.24 854 25.22 5.6 42.1 50 -4 24.8
19:25 1024 30.24 854 25.22 5.5 41.8 51 -4 24.8
19:30 1024 30.24 854 25.22 5.4 41.7 51 -3.9 25
19:35 1024 30.24 854 25.22 5.2 41.3 52 -3.8 25.1
19:40 1024 30.24 854 25.22 5.1 41.1 52 -3.9 25
19:45 1024 30.24 854 25.22 5.1 41.2 52 -4 24.7
19:50 1024 30.24 854 25.22 5.2 41.4 52 -3.9 24.9
19:55 1025 30.27 854 25.22 5.1 41.1 52 -4 24.7
20:00 1025 30.27 854 25.22 5 41 51 -4.2 24.4
20:05 1025 30.27 854 25.22 5.1 41.1 52 -3.9 24.9
20:10 1025 30.27 854 25.22 5.2 41.3 51 -4.2 24.5
20:15 1025 30.27 854 25.22 5.3 41.6 50 -4.2 24.4
20:20 1025 30.27 854 25.22 5.1 41.3 50 -4.5 23.9
20:25 1025 30.27 854 25.22 5.1 41.2 49 -4.8 23.3
20:30 1025 30.27 854 25.22 5.1 41.2 50 -4.6 23.8
20:35 1025 30.27 854 25.22 4.8 40.6 48 -5.2 22.7
20:40 1025 30.27 854 25.22 4.9 40.8 47 -5.4 22.2
20:45 1025 30.27 854 25.22 5 41 46 -5.7 21.8
20:50 1025 30.27 854 25.22 5.2 41.4 43 -6.3 20.7
20:55 1025 30.27 854 25.22 5.4 41.6 46 -5.3 22.5
21:00 1025 30.27 854 25.22 4.4 40 49 -5.3 22.5
21:05 1025 30.27 854 25.22 4.3 39.7 49 -5.6 21.8
21:10 1025 30.27 854 25.22 4.4 39.9 48 -5.8 21.6
21:15 1024 30.24 854 25.22 4.5 40.2 48 -5.4 22.2
21:20 1024 30.24 854 25.22 4.7 40.4 47 -5.7 21.8
21:25 1025 30.27 854 25.22 4.4 39.9 47 -6 21.2
21:30 1025 30.27 854 25.22 4.6 40.3 47 -5.8 21.6
21:35 1025 30.27 854 25.22 4.9 40.8 45 -6.1 21
21:40 1025 30.27 854 25.22 5 40.9 45 -6.1 21
21:45 1025 30.27 854 25.22 5.1 41.2 41 -7 19.3
21:50 1025 30.27 854 25.22 5.1 41.2 43 -6.6 20.2
21:55 1025 30.27 854 25.22 4.6 40.2 47 -5.8 21.5
22:00 1025 30.27 854 25.22 4.2 39.6 46 -6.5 20.4
22:05 1025 30.27 854 25.22 4.3 39.7 48 -5.8 21.5
22:10 1025 30.27 854 25.22 4.4 40 46 -6.1 21
22:15 1025 30.27 854 25.22 4.5 40.1 44 -6.6 20.1
22:20 1025 30.27 854 25.22 4.9 40.9 44 -6.3 20.7
22:25 1025 30.27 854 25.22 4.5 40.2 46 -6.1 21
22:30 1025 30.27 854 25.22 4.3 39.7 46 -6.4 20.5
22:35 1025 30.27 854 25.22 4.1 39.5 47 -6.1 21
22:40 1025 30.27 854 25.22 3.8 38.8 48 -6.4 20.6
22:45 1025 30.27 854 25.22 3.4 38.2 51 -5.7 21.7
22:50 1025 30.27 854 25.22 3.1 37.7 52 -5.9 21.4
22:55 1025 30.27 854 25.22 3.4 38.2 50 -6.1 21
23:00 1025 30.27 854 25.22 3.5 38.2 49 -6.1 21
23:05 1025 30.27 854 25.22 3.4 38.1 50 -6.1 21
23:10 1025 30.27 854 25.22 3.3 38 50 -6.2 20.9
23:15 1024 30.24 854 25.22 3.4 38.1 48 -6.6 20.1
23:20 1024 30.24 854 25.22 3.6 38.5 47 -6.6 20.1
23:25 1024 30.24 854 25.22 3.5 38.3 47 -6.8 19.8
23:30 1024 30.24 854 25.22 3.5 38.4 47 -6.6 20.1
23:35 1024 30.24 854 25.22 3.5 38.2 46 -6.9 19.5
23:40 1024 30.24 854 25.22 4 39.3 42 -7.7 18.1
23:45 1024 30.24 854 25.22 4.8 40.7 38 -8.3 17.1
23:50 1024 30.24 853 25.19 4.9 40.9 40 -7.7 18.1
23:55 1024 30.24 853 25.19 4.8 40.7 40 -7.6 18.2
24:00 1024 30.24 853 25.19 4.4 40 42 -7.4 18.6